sensor_id;sensor_type;location;lat;lon;timestamp;temperature;humidity
45137;DHT22;30894;51.740;19.498;2023-10-19T00:04:39;-2.60;95.90
45137;DHT22;30894;51.740;19.498;2023-10-19T00:07:06;-3.10;95.70
45137;DHT22;30894;51.740;19.498;2023-10-19T00:09:42;-3.20;95.80
45137;DHT22;30894;51.740;19.498;2023-10-19T00:12:12;-3.20;96.00
45137;DHT22;30894;51.740;19.498;2023-10-19T00:14:41;-3.20;96.00
45137;DHT22;30894;51.740;19.498;2023-10-19T00:17:15;-2.80;96.00
45137;DHT22;30894;51.740;19.498;2023-10-19T00:19:46;-3.10;95.90
45137;DHT22;30894;51.740;19.498;2023-10-19T00:22:44;-2.80;95.90
45137;DHT22;30894;51.740;19.498;2023-10-19T00:25:11;-3.00;95.70
45137;DHT22;30894;51.740;19.498;2023-10-19T00:27:43;-3.10;95.70
45137;DHT22;30894;51.740;19.498;2023-10-19T00:30:14;-3.00;95.80
45137;DHT22;30894;51.740;19.498;2023-10-19T00:32:44;-3.10;95.80
45137;DHT22;30894;51.740;19.498;2023-10-19T00:35:12;-3.10;95.90
45137;DHT22;30894;51.740;19.498;2023-10-19T00:38:08;-3.50;95.70
45137;DHT22;30894;51.740;19.498;2023-10-19T00:40:51;-3.10;95.90
45137;DHT22;30894;51.740;19.498;2023-10-19T00:43:27;-2.70;96.00
45137;DHT22;30894;51.740;19.498;2023-10-19T00:45:54;-2.40;96.10
45137;DHT22;30894;51.740;19.498;2023-10-19T00:48:22;-2.50;96.10
45137;DHT22;30894;51.740;19.498;2023-10-19T00:50:53;-3.10;96.00
45137;DHT22;30894;51.740;19.498;2023-10-19T00:53:37;-3.10;96.00
45137;DHT22;30894;51.740;19.498;2023-10-19T00:56:08;-3.00;96.00
45137;DHT22;30894;51.740;19.498;2023-10-19T00:58:38;-3.00;95.80
45137;DHT22;30894;51.740;19.498;2023-10-19T01:03:42;-3.00;95.70
45137;DHT22;30894;51.740;19.498;2023-10-19T01:06:12;-3.10;95.80
45137;DHT22;30894;51.740;19.498;2023-10-19T01:08:39;-3.10;95.90
45137;DHT22;30894;51.740;19.498;2023-10-19T01:11:10;-3.10;96.00
45137;DHT22;30894;51.740;19.498;2023-10-19T01:13:38;-3.10;96.00
45137;DHT22;30894;51.740;19.498;2023-10-19T01:16:30;-3.10;96.00
45137;DHT22;30894;51.740;19.498;2023-10-19T01:19:03;-3.10;96.10
45137;DHT22;30894;51.740;19.498;2023-10-19T01:21:32;-3.10;96.10
45137;DHT22;30894;51.740;19.498;2023-10-19T01:24:12;-3.10;96.10
45137;DHT22;30894;51.740;19.498;2023-10-19T01:26:48;-3.10;96.20
45137;DHT22;30894;51.740;19.498;2023-10-19T01:29:16;-3.10;96.10
45137;DHT22;30894;51.740;19.498;2023-10-19T01:31:51;-3.10;96.10
45137;DHT22;30894;51.740;19.498;2023-10-19T01:34:22;-3.00;96.10
45137;DHT22;30894;51.740;19.498;2023-10-19T01:36:48;-2.70;96.10
45137;DHT22;30894;51.740;19.498;2023-10-19T01:39:16;-2.90;95.90
45137;DHT22;30894;51.740;19.498;2023-10-19T01:41:45;-2.80;95.80
45137;DHT22;30894;51.740;19.498;2023-10-19T01:44:29;-2.70;95.70
45137;DHT22;30894;51.740;19.498;2023-10-19T01:46:56;-2.70;95.50
45137;DHT22;30894;51.740;19.498;2023-10-19T01:49:22;-2.60;95.40
45137;DHT22;30894;51.740;19.498;2023-10-19T01:51:52;-2.50;95.30
45137;DHT22;30894;51.740;19.498;2023-10-19T01:54:24;-2.40;95.20
45137;DHT22;30894;51.740;19.498;2023-10-19T01:56:55;-2.20;95.00
45137;DHT22;30894;51.740;19.498;2023-10-19T01:59:31;-2.20;94.70
45137;DHT22;30894;51.740;19.498;2023-10-19T02:02:00;-2.10;94.60
45137;DHT22;30894;51.740;19.498;2023-10-19T02:04:28;-2.10;94.50
45137;DHT22;30894;51.740;19.498;2023-10-19T02:06:55;-2.10;94.40
45137;DHT22;30894;51.740;19.498;2023-10-19T02:09:25;-2.10;94.50
45137;DHT22;30894;51.740;19.498;2023-10-19T02:12:01;-2.10;94.50
45137;DHT22;30894;51.740;19.498;2023-10-19T02:14:30;-2.00;94.60
45137;DHT22;30894;51.740;19.498;2023-10-19T02:16:59;-2.00;94.60
45137;DHT22;30894;51.740;19.498;2023-10-19T02:19:28;-2.00;94.60
45137;DHT22;30894;51.740;19.498;2023-10-19T02:21:59;-2.30;94.60
45137;DHT22;30894;51.740;19.498;2023-10-19T02:24:39;-2.00;94.60
45137;DHT22;30894;51.740;19.498;2023-10-19T02:27:06;-2.00;94.70
45137;DHT22;30894;51.740;19.498;2023-10-19T02:29:32;-2.30;94.60
45137;DHT22;30894;51.740;19.498;2023-10-19T02:31:58;-2.00;94.80
45137;DHT22;30894;51.740;19.498;2023-10-19T02:34:31;-2.00;94.80
45137;DHT22;30894;51.740;19.498;2023-10-19T02:37:04;-2.00;94.80
45137;DHT22;30894;51.740;19.498;2023-10-19T02:39:36;-2.00;94.90
45137;DHT22;30894;51.740;19.498;2023-10-19T02:42:05;-2.00;94.90
45137;DHT22;30894;51.740;19.498;2023-10-19T02:44:36;-1.90;94.90
45137;DHT22;30894;51.740;19.498;2023-10-19T02:47:03;-1.80;94.80
45137;DHT22;30894;51.740;19.498;2023-10-19T02:49:34;-1.80;94.70
45137;DHT22;30894;51.740;19.498;2023-10-19T02:52:08;-1.70;94.70
45137;DHT22;30894;51.740;19.498;2023-10-19T02:54:38;-1.70;94.60
45137;DHT22;30894;51.740;19.498;2023-10-19T02:57:19;-1.60;94.50
45137;DHT22;30894;51.740;19.498;2023-10-19T02:59:48;-1.60;94.50
45137;DHT22;30894;51.740;19.498;2023-10-19T03:02:15;-1.50;94.60
45137;DHT22;30894;51.740;19.498;2023-10-19T03:04:44;-1.40;94.50
45137;DHT22;30894;51.740;19.498;2023-10-19T03:07:17;-1.30;94.50
45137;DHT22;30894;51.740;19.498;2023-10-19T03:09:46;-1.20;94.40
45137;DHT22;30894;51.740;19.498;2023-10-19T03:12:16;-1.20;94.40
45137;DHT22;30894;51.740;19.498;2023-10-19T03:14:42;-1.20;94.40
45137;DHT22;30894;51.740;19.498;2023-10-19T03:17:09;-1.20;94.40
45137;DHT22;30894;51.740;19.498;2023-10-19T03:19:41;-1.00;94.40
45137;DHT22;30894;51.740;19.498;2023-10-19T03:22:10;-1.10;94.30
45137;DHT22;30894;51.740;19.498;2023-10-19T03:24:40;-1.10;94.30
45137;DHT22;30894;51.740;19.498;2023-10-19T03:27:08;-1.10;94.30
45137;DHT22;30894;51.740;19.498;2023-10-19T03:29:39;-1.10;94.20
45137;DHT22;30894;51.740;19.498;2023-10-19T03:32:18;-1.00;94.20
45137;DHT22;30894;51.740;19.498;2023-10-19T03:34:48;-1.00;94.20
45137;DHT22;30894;51.740;19.498;2023-10-19T03:37:22;-0.90;94.20
45137;DHT22;30894;51.740;19.498;2023-10-19T03:39:53;-0.90;94.10
45137;DHT22;30894;51.740;19.498;2023-10-19T03:42:25;-0.80;94.10
45137;DHT22;30894;51.740;19.498;2023-10-19T03:45:05;-0.80;94.10
45137;DHT22;30894;51.740;19.498;2023-10-19T03:47:40;-0.70;94.10
45137;DHT22;30894;51.740;19.498;2023-10-19T03:50:09;-0.70;94.10
45137;DHT22;30894;51.740;19.498;2023-10-19T03:52:41;-0.40;94.20
45137;DHT22;30894;51.740;19.498;2023-10-19T03:55:08;-0.70;94.10
45137;DHT22;30894;51.740;19.498;2023-10-19T03:57:39;-0.70;94.10
45137;DHT22;30894;51.740;19.498;2023-10-19T04:00:08;-0.30;94.20
45137;DHT22;30894;51.740;19.498;2023-10-19T04:02:37;-0.60;94.20
45137;DHT22;30894;51.740;19.498;2023-10-19T04:05:09;-0.60;94.20
45137;DHT22;30894;51.740;19.498;2023-10-19T04:07:40;-0.70;94.30
45137;DHT22;30894;51.740;19.498;2023-10-19T04:10:09;-0.70;94.30
45137;DHT22;30894;51.740;19.498;2023-10-19T04:12:38;-0.70;94.40
45137;DHT22;30894;51.740;19.498;2023-10-19T04:15:07;-0.60;94.40
45137;DHT22;30894;51.740;19.498;2023-10-19T04:17:42;-0.70;94.40
45137;DHT22;30894;51.740;19.498;2023-10-19T04:20:09;-0.70;94.40
45137;DHT22;30894;51.740;19.498;2023-10-19T04:22:54;-0.60;94.50
45137;DHT22;30894;51.740;19.498;2023-10-19T04:25:20;-0.60;94.50
45137;DHT22;30894;51.740;19.498;2023-10-19T04:27:55;-0.60;94.40
45137;DHT22;30894;51.740;19.498;2023-10-19T04:30:34;-0.50;94.40
45137;DHT22;30894;51.740;19.498;2023-10-19T04:33:05;-0.50;94.40
45137;DHT22;30894;51.740;19.498;2023-10-19T04:35:42;-0.50;94.40
45137;DHT22;30894;51.740;19.498;2023-10-19T04:38:08;-0.50;94.50
45137;DHT22;30894;51.740;19.498;2023-10-19T04:40:34;-0.50;94.50
45137;DHT22;30894;51.740;19.498;2023-10-19T04:43:02;-0.50;94.50
45137;DHT22;30894;51.740;19.498;2023-10-19T04:45:32;-0.50;94.60
45137;DHT22;30894;51.740;19.498;2023-10-19T04:47:58;-0.50;94.70
45137;DHT22;30894;51.740;19.498;2023-10-19T04:50:31;-0.50;94.70
45137;DHT22;30894;51.740;19.498;2023-10-19T04:52:59;-0.50;94.70
45137;DHT22;30894;51.740;19.498;2023-10-19T04:55:30;-0.50;94.70
45137;DHT22;30894;51.740;19.498;2023-10-19T04:57:59;-0.50;94.70
45137;DHT22;30894;51.740;19.498;2023-10-19T05:00:27;-0.50;94.70
45137;DHT22;30894;51.740;19.498;2023-10-19T05:02:54;-0.50;94.80
45137;DHT22;30894;51.740;19.498;2023-10-19T05:05:20;-0.50;94.80
45137;DHT22;30894;51.740;19.498;2023-10-19T05:07:47;-0.60;94.80
45137;DHT22;30894;51.740;19.498;2023-10-19T05:10:13;-0.60;94.80
45137;DHT22;30894;51.740;19.498;2023-10-19T05:12:39;-0.50;94.80
45137;DHT22;30894;51.740;19.498;2023-10-19T05:15:06;-0.50;94.90
45137;DHT22;30894;51.740;19.498;2023-10-19T05:17:34;-0.50;95.10
45137;DHT22;30894;51.740;19.498;2023-10-19T05:20:00;-0.50;94.90
45137;DHT22;30894;51.740;19.498;2023-10-19T05:22:26;-0.50;94.90
45137;DHT22;30894;51.740;19.498;2023-10-19T05:24:55;-0.50;94.90
45137;DHT22;30894;51.740;19.498;2023-10-19T05:27:21;-0.40;95.00
45137;DHT22;30894;51.740;19.498;2023-10-19T05:29:48;-0.40;95.00
45137;DHT22;30894;51.740;19.498;2023-10-19T05:32:16;-0.40;94.90
45137;DHT22;30894;51.740;19.498;2023-10-19T05:34:42;-0.30;94.90
45137;DHT22;30894;51.740;19.498;2023-10-19T05:37:09;-0.30;94.90
45137;DHT22;30894;51.740;19.498;2023-10-19T05:39:36;-0.20;94.80
45137;DHT22;30894;51.740;19.498;2023-10-19T05:42:04;-0.20;94.80
45137;DHT22;30894;51.740;19.498;2023-10-19T05:44:31;-0.10;94.80
45137;DHT22;30894;51.740;19.498;2023-10-19T05:46:59;-0.10;94.70
45137;DHT22;30894;51.740;19.498;2023-10-19T05:49:25;0.00;94.70
45137;DHT22;30894;51.740;19.498;2023-10-19T05:51:54;0.00;94.70
45137;DHT22;30894;51.740;19.498;2023-10-19T05:54:20;0.10;94.70
45137;DHT22;30894;51.740;19.498;2023-10-19T05:56:50;0.10;94.70
45137;DHT22;30894;51.740;19.498;2023-10-19T05:59:16;0.20;94.70
45137;DHT22;30894;51.740;19.498;2023-10-19T06:01:44;0.20;94.70
45137;DHT22;30894;51.740;19.498;2023-10-19T06:04:13;0.30;94.70
45137;DHT22;30894;51.740;19.498;2023-10-19T06:06:42;0.40;94.70
45137;DHT22;30894;51.740;19.498;2023-10-19T06:09:08;0.50;94.70
45137;DHT22;30894;51.740;19.498;2023-10-19T06:11:35;0.70;94.60
45137;DHT22;30894;51.740;19.498;2023-10-19T06:14:06;0.80;94.40
45137;DHT22;30894;51.740;19.498;2023-10-19T06:16:33;1.00;94.20
45137;DHT22;30894;51.740;19.498;2023-10-19T06:19:00;1.10;93.90
45137;DHT22;30894;51.740;19.498;2023-10-19T06:21:28;1.20;93.80
45137;DHT22;30894;51.740;19.498;2023-10-19T06:23:55;1.40;93.70
45137;DHT22;30894;51.740;19.498;2023-10-19T06:26:22;1.40;93.50
45137;DHT22;30894;51.740;19.498;2023-10-19T06:28:48;1.60;93.40
45137;DHT22;30894;51.740;19.498;2023-10-19T06:31:17;1.60;93.20
45137;DHT22;30894;51.740;19.498;2023-10-19T06:33:43;1.80;93.20
45137;DHT22;30894;51.740;19.498;2023-10-19T06:36:09;1.90;93.00
45137;DHT22;30894;51.740;19.498;2023-10-19T06:38:35;2.00;92.80
45137;DHT22;30894;51.740;19.498;2023-10-19T06:41:18;2.10;92.70
45137;DHT22;30894;51.740;19.498;2023-10-19T06:44:07;2.20;92.60
45137;DHT22;30894;51.740;19.498;2023-10-19T06:46:34;2.40;92.40
45137;DHT22;30894;51.740;19.498;2023-10-19T06:49:01;2.60;92.20
45137;DHT22;30894;51.740;19.498;2023-10-19T06:51:29;2.80;92.00
45137;DHT22;30894;51.740;19.498;2023-10-19T06:53:56;2.90;91.80
45137;DHT22;30894;51.740;19.498;2023-10-19T06:56:22;3.10;91.60
45137;DHT22;30894;51.740;19.498;2023-10-19T06:58:49;3.30;91.40
45137;DHT22;30894;51.740;19.498;2023-10-19T07:01:15;3.50;91.50
45137;DHT22;30894;51.740;19.498;2023-10-19T07:03:52;3.70;91.10
45137;DHT22;30894;51.740;19.498;2023-10-19T07:06:21;3.90;90.90
45137;DHT22;30894;51.740;19.498;2023-10-19T07:08:47;4.20;90.80
45137;DHT22;30894;51.740;19.498;2023-10-19T07:11:15;4.40;90.50
45137;DHT22;30894;51.740;19.498;2023-10-19T07:13:41;4.50;90.20
45137;DHT22;30894;51.740;19.498;2023-10-19T07:16:16;4.60;90.10
45137;DHT22;30894;51.740;19.498;2023-10-19T07:18:43;4.70;90.10
45137;DHT22;30894;51.740;19.498;2023-10-19T07:21:10;4.80;90.10
45137;DHT22;30894;51.740;19.498;2023-10-19T07:23:37;4.80;90.10
45137;DHT22;30894;51.740;19.498;2023-10-19T07:26:04;4.80;90.10
45137;DHT22;30894;51.740;19.498;2023-10-19T07:28:32;4.90;90.20
45137;DHT22;30894;51.740;19.498;2023-10-19T07:30:59;5.00;90.20
45137;DHT22;30894;51.740;19.498;2023-10-19T07:33:28;5.20;90.20
45137;DHT22;30894;51.740;19.498;2023-10-19T07:35:58;5.40;90.10
45137;DHT22;30894;51.740;19.498;2023-10-19T07:38:32;5.60;90.00
45137;DHT22;30894;51.740;19.498;2023-10-19T07:41:01;6.20;89.90
45137;DHT22;30894;51.740;19.498;2023-10-19T07:43:29;5.90;89.20
45137;DHT22;30894;51.740;19.498;2023-10-19T07:45:56;6.10;89.00
45137;DHT22;30894;51.740;19.498;2023-10-19T07:48:23;6.30;88.60
45137;DHT22;30894;51.740;19.498;2023-10-19T07:50:55;6.40;88.10
45137;DHT22;30894;51.740;19.498;2023-10-19T07:53:22;6.50;87.90
45137;DHT22;30894;51.740;19.498;2023-10-19T07:55:52;6.50;87.80
45137;DHT22;30894;51.740;19.498;2023-10-19T07:58:18;6.50;88.30
45137;DHT22;30894;51.740;19.498;2023-10-19T08:00:45;6.40;88.60
45137;DHT22;30894;51.740;19.498;2023-10-19T08:03:12;6.40;89.00
45137;DHT22;30894;51.740;19.498;2023-10-19T08:05:43;6.40;89.20
45137;DHT22;30894;51.740;19.498;2023-10-19T08:08:12;6.40;89.30
45137;DHT22;30894;51.740;19.498;2023-10-19T08:10:43;6.40;89.40
45137;DHT22;30894;51.740;19.498;2023-10-19T08:13:08;6.40;89.50
45137;DHT22;30894;51.740;19.498;2023-10-19T08:15:36;6.50;89.60
45137;DHT22;30894;51.740;19.498;2023-10-19T08:18:03;6.50;89.50
45137;DHT22;30894;51.740;19.498;2023-10-19T08:20:31;6.60;89.20
45137;DHT22;30894;51.740;19.498;2023-10-19T08:22:59;6.80;88.90
45137;DHT22;30894;51.740;19.498;2023-10-19T08:25:31;6.90;88.60
45137;DHT22;30894;51.740;19.498;2023-10-19T08:27:59;7.00;88.20
45137;DHT22;30894;51.740;19.498;2023-10-19T08:30:25;7.20;87.80
45137;DHT22;30894;51.740;19.498;2023-10-19T08:32:53;7.30;87.50
45137;DHT22;30894;51.740;19.498;2023-10-19T08:35:21;7.50;87.00
45137;DHT22;30894;51.740;19.498;2023-10-19T08:37:54;7.60;86.60
45137;DHT22;30894;51.740;19.498;2023-10-19T08:40:25;7.80;86.70
45137;DHT22;30894;51.740;19.498;2023-10-19T08:42:55;7.90;85.60
45137;DHT22;30894;51.740;19.498;2023-10-19T08:45:23;8.00;85.10
45137;DHT22;30894;51.740;19.498;2023-10-19T08:48:00;8.20;84.80
45137;DHT22;30894;51.740;19.498;2023-10-19T08:50:32;8.30;84.50
45137;DHT22;30894;51.740;19.498;2023-10-19T08:53:07;8.50;84.10
45137;DHT22;30894;51.740;19.498;2023-10-19T08:55:42;8.70;83.60
45137;DHT22;30894;51.740;19.498;2023-10-19T08:58:09;8.80;83.20
45137;DHT22;30894;51.740;19.498;2023-10-19T09:00:44;8.80;82.80
45137;DHT22;30894;51.740;19.498;2023-10-19T09:03:15;8.90;82.60
45137;DHT22;30894;51.740;19.498;2023-10-19T09:05:43;9.10;82.50
45137;DHT22;30894;51.740;19.498;2023-10-19T09:08:16;9.30;82.10
45137;DHT22;30894;51.740;19.498;2023-10-19T09:10:51;9.50;81.50
45137;DHT22;30894;51.740;19.498;2023-10-19T09:13:24;9.70;81.00
45137;DHT22;30894;51.740;19.498;2023-10-19T09:16:04;9.80;80.70
45137;DHT22;30894;51.740;19.498;2023-10-19T09:18:35;9.70;80.70
45137;DHT22;30894;51.740;19.498;2023-10-19T09:21:02;9.70;80.90
45137;DHT22;30894;51.740;19.498;2023-10-19T09:23:34;9.60;81.20
45137;DHT22;30894;51.740;19.498;2023-10-19T09:26:04;9.40;81.50
45137;DHT22;30894;51.740;19.498;2023-10-19T09:28:35;9.30;81.80
45137;DHT22;30894;51.740;19.498;2023-10-19T09:31:05;9.30;82.20
45137;DHT22;30894;51.740;19.498;2023-10-19T09:33:35;9.30;82.50
45137;DHT22;30894;51.740;19.498;2023-10-19T09:36:09;9.30;82.50
45137;DHT22;30894;51.740;19.498;2023-10-19T09:38:50;9.50;82.40
45137;DHT22;30894;51.740;19.498;2023-10-19T09:41:19;9.50;82.30
45137;DHT22;30894;51.740;19.498;2023-10-19T09:43:51;9.50;82.20
45137;DHT22;30894;51.740;19.498;2023-10-19T09:46:32;9.60;82.10
45137;DHT22;30894;51.740;19.498;2023-10-19T09:49:08;9.90;82.20
45137;DHT22;30894;51.740;19.498;2023-10-19T09:51:53;9.50;82.20
45137;DHT22;30894;51.740;19.498;2023-10-19T09:54:52;9.50;82.30
45137;DHT22;30894;51.740;19.498;2023-10-19T09:57:50;9.40;82.50
45137;DHT22;30894;51.740;19.498;2023-10-19T10:00:19;9.40;82.70
45137;DHT22;30894;51.740;19.498;2023-10-19T10:02:51;9.30;82.90
45137;DHT22;30894;51.740;19.498;2023-10-19T10:11:19;9.20;83.30
45137;DHT22;30894;51.740;19.498;2023-10-19T10:13:54;9.20;83.50
45137;DHT22;30894;51.740;19.498;2023-10-19T10:16:26;9.10;83.60
45137;DHT22;30894;51.740;19.498;2023-10-19T10:18:59;9.10;83.80
45137;DHT22;30894;51.740;19.498;2023-10-19T10:21:30;9.10;83.90
45137;DHT22;30894;51.740;19.498;2023-10-19T10:23:58;9.10;83.90
45137;DHT22;30894;51.740;19.498;2023-10-19T10:26:58;9.10;83.90
45137;DHT22;30894;51.740;19.498;2023-10-19T10:29:29;9.20;83.80
45137;DHT22;30894;51.740;19.498;2023-10-19T10:31:58;9.20;83.80
45137;DHT22;30894;51.740;19.498;2023-10-19T10:37:21;9.00;84.20
45137;DHT22;30894;51.740;19.498;2023-10-19T10:39:59;8.90;84.40
45137;DHT22;30894;51.740;19.498;2023-10-19T10:42:44;8.90;84.60
45137;DHT22;30894;51.740;19.498;2023-10-19T10:45:19;9.10;84.80
45137;DHT22;30894;51.740;19.498;2023-10-19T10:47:47;8.80;84.90
45137;DHT22;30894;51.740;19.498;2023-10-19T10:50:22;8.80;85.10
45137;DHT22;30894;51.740;19.498;2023-10-19T10:52:56;8.70;85.30
45137;DHT22;30894;51.740;19.498;2023-10-19T10:55:24;8.70;85.40
45137;DHT22;30894;51.740;19.498;2023-10-19T10:57:51;8.60;85.50
45137;DHT22;30894;51.740;19.498;2023-10-19T11:00:18;8.60;85.70
45137;DHT22;30894;51.740;19.498;2023-10-19T11:03:04;8.60;85.90
45137;DHT22;30894;51.740;19.498;2023-10-19T11:05:37;8.60;85.90
45137;DHT22;30894;51.740;19.498;2023-10-19T11:08:15;8.60;86.00
45137;DHT22;30894;51.740;19.498;2023-10-19T11:10:46;8.70;86.00
45137;DHT22;30894;51.740;19.498;2023-10-19T11:13:15;8.70;85.90
45137;DHT22;30894;51.740;19.498;2023-10-19T11:15:50;8.70;85.90
45137;DHT22;30894;51.740;19.498;2023-10-19T11:18:39;8.70;86.00
45137;DHT22;30894;51.740;19.498;2023-10-19T11:21:20;8.60;86.00
45137;DHT22;30894;51.740;19.498;2023-10-19T11:23:50;8.60;86.20
45137;DHT22;30894;51.740;19.498;2023-10-19T11:26:24;8.60;86.20
45137;DHT22;30894;51.740;19.498;2023-10-19T11:29:01;8.60;86.20
45137;DHT22;30894;51.740;19.498;2023-10-19T11:31:35;8.70;86.30
45137;DHT22;30894;51.740;19.498;2023-10-19T11:34:05;8.70;86.30
45137;DHT22;30894;51.740;19.498;2023-10-19T11:36:33;8.60;86.20
45137;DHT22;30894;51.740;19.498;2023-10-19T11:39:02;8.60;86.30
45137;DHT22;30894;51.740;19.498;2023-10-19T11:41:31;8.60;86.50
45137;DHT22;30894;51.740;19.498;2023-10-19T11:43:58;8.50;86.60
45137;DHT22;30894;51.740;19.498;2023-10-19T11:46:26;8.50;86.80
45137;DHT22;30894;51.740;19.498;2023-10-19T11:48:56;8.40;87.10
45137;DHT22;30894;51.740;19.498;2023-10-19T11:51:28;8.30;87.40
45137;DHT22;30894;51.740;19.498;2023-10-19T11:53:56;8.20;87.80
45137;DHT22;30894;51.740;19.498;2023-10-19T11:56:26;8.20;88.10
45137;DHT22;30894;51.740;19.498;2023-10-19T11:58:55;8.10;88.90
45137;DHT22;30894;51.740;19.498;2023-10-19T12:01:21;8.10;88.50
45137;DHT22;30894;51.740;19.498;2023-10-19T12:03:47;8.00;88.70
45137;DHT22;30894;51.740;19.498;2023-10-19T12:06:18;7.90;88.80
45137;DHT22;30894;51.740;19.498;2023-10-19T12:08:45;7.90;89.10
45137;DHT22;30894;51.740;19.498;2023-10-19T12:11:13;7.90;89.50
45137;DHT22;30894;51.740;19.498;2023-10-19T12:13:45;7.80;89.70
45137;DHT22;30894;51.740;19.498;2023-10-19T12:16:16;7.70;89.90
45137;DHT22;30894;51.740;19.498;2023-10-19T12:18:42;7.60;90.00
45137;DHT22;30894;51.740;19.498;2023-10-19T12:21:09;7.50;90.20
45137;DHT22;30894;51.740;19.498;2023-10-19T12:23:40;7.40;90.60
45137;DHT22;30894;51.740;19.498;2023-10-19T12:26:07;7.40;90.50
45137;DHT22;30894;51.740;19.498;2023-10-19T12:28:43;7.40;90.60
45137;DHT22;30894;51.740;19.498;2023-10-19T12:31:15;7.30;90.70
45137;DHT22;30894;51.740;19.498;2023-10-19T12:33:44;6.80;90.70
45137;DHT22;30894;51.740;19.498;2023-10-19T12:36:11;7.20;91.00
45137;DHT22;30894;51.740;19.498;2023-10-19T12:38:56;7.20;90.90
45137;DHT22;30894;51.740;19.498;2023-10-19T12:41:25;8.30;91.40
45137;DHT22;30894;51.740;19.498;2023-10-19T12:43:59;7.10;91.20
45137;DHT22;30894;51.740;19.498;2023-10-19T12:46:35;7.00;91.30
45137;DHT22;30894;51.740;19.498;2023-10-19T12:49:07;7.70;91.70
45137;DHT22;30894;51.740;19.498;2023-10-19T12:51:46;6.80;91.60
45137;DHT22;30894;51.740;19.498;2023-10-19T12:54:13;6.80;91.80
45137;DHT22;30894;51.740;19.498;2023-10-19T12:56:45;6.80;91.80
45137;DHT22;30894;51.740;19.498;2023-10-19T12:59:14;6.80;92.00
45137;DHT22;30894;51.740;19.498;2023-10-19T13:01:43;6.80;92.10
45137;DHT22;30894;51.740;19.498;2023-10-19T13:04:15;8.10;92.50
45137;DHT22;30894;51.740;19.498;2023-10-19T13:06:45;6.80;92.30
45137;DHT22;30894;51.740;19.498;2023-10-19T13:09:19;6.80;92.40
45137;DHT22;30894;51.740;19.498;2023-10-19T13:11:56;6.90;92.50
45137;DHT22;30894;51.740;19.498;2023-10-19T13:14:25;6.90;92.70
45137;DHT22;30894;51.740;19.498;2023-10-19T13:16:53;6.90;92.90
45137;DHT22;30894;51.740;19.498;2023-10-19T13:19:21;6.80;92.90
45137;DHT22;30894;51.740;19.498;2023-10-19T13:21:54;7.10;93.10
45137;DHT22;30894;51.740;19.498;2023-10-19T13:24:20;6.80;93.20
45137;DHT22;30894;51.740;19.498;2023-10-19T13:26:48;6.80;93.30
45137;DHT22;30894;51.740;19.498;2023-10-19T13:29:24;7.10;93.60
45137;DHT22;30894;51.740;19.498;2023-10-19T13:31:53;6.60;93.60
45137;DHT22;30894;51.740;19.498;2023-10-19T13:34:22;6.40;93.80
45137;DHT22;30894;51.740;19.498;2023-10-19T13:36:52;6.50;94.00
45137;DHT22;30894;51.740;19.498;2023-10-19T13:39:19;6.50;94.20
45137;DHT22;30894;51.740;19.498;2023-10-19T13:41:51;6.50;94.20
45137;DHT22;30894;51.740;19.498;2023-10-19T13:44:20;6.60;94.30
45137;DHT22;30894;51.740;19.498;2023-10-19T13:46:48;6.60;94.40
45137;DHT22;30894;51.740;19.498;2023-10-19T13:49:17;6.50;94.40
45137;DHT22;30894;51.740;19.498;2023-10-19T13:51:47;6.50;94.60
45137;DHT22;30894;51.740;19.498;2023-10-19T13:54:16;6.40;94.80
45137;DHT22;30894;51.740;19.498;2023-10-19T13:56:48;6.40;95.00
45137;DHT22;30894;51.740;19.498;2023-10-19T13:59:18;6.10;95.00
45137;DHT22;30894;51.740;19.498;2023-10-19T14:01:49;6.30;95.10
45137;DHT22;30894;51.740;19.498;2023-10-19T14:04:16;6.30;95.30
45137;DHT22;30894;51.740;19.498;2023-10-19T14:06:43;6.20;95.40
45137;DHT22;30894;51.740;19.498;2023-10-19T14:09:15;6.20;95.50
45137;DHT22;30894;51.740;19.498;2023-10-19T14:11:44;6.20;95.60
45137;DHT22;30894;51.740;19.498;2023-10-19T14:14:13;6.20;95.70
45137;DHT22;30894;51.740;19.498;2023-10-19T14:16:41;6.10;95.80
45137;DHT22;30894;51.740;19.498;2023-10-19T14:19:16;6.80;96.10
45137;DHT22;30894;51.740;19.498;2023-10-19T14:21:43;6.10;96.00
45137;DHT22;30894;51.740;19.498;2023-10-19T14:24:13;7.00;96.30
45137;DHT22;30894;51.740;19.498;2023-10-19T14:26:41;6.00;96.00
45137;DHT22;30894;51.740;19.498;2023-10-19T14:29:10;6.10;96.10
45137;DHT22;30894;51.740;19.498;2023-10-19T14:31:40;6.00;96.20
45137;DHT22;30894;51.740;19.498;2023-10-19T14:34:07;6.10;96.20
45137;DHT22;30894;51.740;19.498;2023-10-19T14:36:34;6.00;96.20
45137;DHT22;30894;51.740;19.498;2023-10-19T14:39:01;6.10;96.30
45137;DHT22;30894;51.740;19.498;2023-10-19T14:41:30;6.00;96.20
45137;DHT22;30894;51.740;19.498;2023-10-19T14:43:56;6.00;96.30
45137;DHT22;30894;51.740;19.498;2023-10-19T14:46:26;6.00;96.30
45137;DHT22;30894;51.740;19.498;2023-10-19T14:48:54;6.00;96.40
45137;DHT22;30894;51.740;19.498;2023-10-19T14:51:21;6.00;96.50
45137;DHT22;30894;51.740;19.498;2023-10-19T14:53:47;6.00;96.60
45137;DHT22;30894;51.740;19.498;2023-10-19T14:56:17;6.10;96.60
45137;DHT22;30894;51.740;19.498;2023-10-19T14:58:43;5.90;96.70
45137;DHT22;30894;51.740;19.498;2023-10-19T15:01:11;5.90;96.80
45137;DHT22;30894;51.740;19.498;2023-10-19T15:03:42;5.90;96.90
45137;DHT22;30894;51.740;19.498;2023-10-19T15:06:09;5.90;97.00
45137;DHT22;30894;51.740;19.498;2023-10-19T15:08:36;5.90;97.00
45137;DHT22;30894;51.740;19.498;2023-10-19T15:11:05;5.90;97.20
45137;DHT22;30894;51.740;19.498;2023-10-19T15:13:33;5.90;97.30
45137;DHT22;30894;51.740;19.498;2023-10-19T15:16:07;5.80;97.30
45137;DHT22;30894;51.740;19.498;2023-10-19T15:18:35;5.80;97.40
45137;DHT22;30894;51.740;19.498;2023-10-19T15:21:11;5.80;97.60
45137;DHT22;30894;51.740;19.498;2023-10-19T15:23:43;5.80;97.70
45137;DHT22;30894;51.740;19.498;2023-10-19T15:26:09;5.80;97.80
45137;DHT22;30894;51.740;19.498;2023-10-19T15:28:44;5.80;97.80
45137;DHT22;30894;51.740;19.498;2023-10-19T15:31:11;5.80;98.00
45137;DHT22;30894;51.740;19.498;2023-10-19T15:33:40;5.80;98.10
45137;DHT22;30894;51.740;19.498;2023-10-19T15:36:11;5.80;98.20
45137;DHT22;30894;51.740;19.498;2023-10-19T15:38:38;5.80;98.20
45137;DHT22;30894;51.740;19.498;2023-10-19T15:41:04;5.50;98.20
45137;DHT22;30894;51.740;19.498;2023-10-19T15:43:33;5.80;98.30
45137;DHT22;30894;51.740;19.498;2023-10-19T15:46:07;5.70;98.40
45137;DHT22;30894;51.740;19.498;2023-10-19T15:48:39;5.70;98.80
45137;DHT22;30894;51.740;19.498;2023-10-19T15:51:18;5.40;98.40
45137;DHT22;30894;51.740;19.498;2023-10-19T15:53:45;5.70;98.70
45137;DHT22;30894;51.740;19.498;2023-10-19T15:56:15;5.80;98.90
45137;DHT22;30894;51.740;19.498;2023-10-19T15:58:44;5.70;98.90
45137;DHT22;30894;51.740;19.498;2023-10-19T16:01:17;6.00;99.10